Time;durP1;ratioP1;P1;durP2;ratioP2;P2;SDS_P1;SDS_P2;PMS_P1;PMS_P2;Temp;Humidity;BMP_temperature;BMP_pressure;BME280_temperature;BME280_humidity;BME280_pressure;Samples;Min_cycle;Max_cycle;Signal;HPM_P1;HPM_P2
2022/07/31 00:02:25;;;;;;;0.80;0.60;;;21.70;1.00;;;;;;5095783;28;20543;-74
2022/07/31 00:04:52;;;;;;;1.30;0.80;;;21.60;1.00;;;;;;5096153;28;20751;-75
2022/07/31 00:07:19;;;;;;;1.03;0.83;;;21.50;1.00;;;;;;5095830;28;20449;-74
2022/07/31 00:09:47;;;;;;;1.03;0.73;;;21.60;1.00;;;;;;5095755;28;20953;-74
2022/07/31 00:12:14;;;;;;;0.90;0.70;;;21.50;1.00;;;;;;5098864;28;20509;-74
2022/07/31 00:14:41;;;;;;;0.80;0.67;;;21.50;1.00;;;;;;5099177;28;20467;-73
2022/07/31 00:17:08;;;;;;;0.90;0.70;;;21.50;1.00;;;;;;5099496;28;20495;-74
2022/07/31 00:19:36;;;;;;;0.70;0.60;;;21.50;1.00;;;;;;5099551;28;20488;-74
2022/07/31 00:22:03;;;;;;;0.90;0.70;;;21.40;1.00;;;;;;5098970;28;20453;-74
2022/07/31 00:24:29;;;;;;;1.03;0.73;;;21.40;1.00;;;;;;5099092;28;20996;-74
2022/07/31 00:26:58;;;;;;;0.90;0.67;;;21.40;1.00;;;;;;5098763;28;20945;-74
2022/07/31 00:29:25;;;;;;;0.90;0.80;;;21.40;1.00;;;;;;5098878;28;20489;-74
2022/07/31 00:31:52;;;;;;;1.03;0.70;;;21.40;1.00;;;;;;5099182;28;20488;-74
2022/07/31 00:34:19;;;;;;;0.87;0.70;;;21.40;1.00;;;;;;5099552;28;20762;-72
2022/07/31 00:36:46;;;;;;;1.10;0.80;;;21.40;1.00;;;;;;5099161;28;20900;-74
2022/07/31 00:39:13;;;;;;;0.90;0.80;;;21.40;1.00;;;;;;5099359;28;20493;-74
2022/07/31 00:41:42;;;;;;;1.00;0.80;;;21.40;1.00;;;;;;5099355;28;20449;-74
2022/07/31 00:44:11;;;;;;;1.10;0.90;;;21.40;1.00;;;;;;5098238;28;20846;-74
2022/07/31 00:46:38;;;;;;;0.80;0.80;;;21.40;1.00;;;;;;5097549;28;20488;-73
2022/07/31 00:49:07;;;;;;;1.93;0.70;;;21.30;1.00;;;;;;5098262;28;20453;-74
2022/07/31 00:51:34;;;;;;;0.90;0.70;;;21.30;1.00;;;;;;5098258;28;20881;-73
2022/07/31 00:54:01;;;;;;;1.00;0.90;;;21.20;1.00;;;;;;5097579;28;20949;-74
2022/07/31 00:56:28;;;;;;;1.97;0.80;;;21.10;1.00;;;;;;5095607;28;20445;-74
2022/07/31 00:58:55;;;;;;;1.47;0.93;;;21.20;1.00;;;;;;5095685;28;20461;-74
2022/07/31 01:01:23;;;;;;;0.97;0.90;;;21.20;1.00;;;;;;5096042;28;20458;-74
2022/07/31 01:03:52;;;;;;;1.97;0.90;;;21.10;1.00;;;;;;5100718;28;20572;-73
2022/07/31 01:06:19;;;;;;;1.30;1.00;;;21.10;1.00;;;;;;5117407;28;20437;-74
2022/07/31 01:08:46;;;;;;;1.83;1.00;;;21.10;1.00;;;;;;5117066;28;20453;-74
2022/07/31 01:11:17;;;;;;;1.17;0.90;;;21.00;1.00;;;;;;5121339;27;20829;-74
2022/07/31 01:13:50;;;;;;;1.00;0.90;;;21.00;1.00;;;;;;5139329;27;20487;-74
2022/07/31 01:16:18;;;;;;;1.40;1.00;;;21.00;1.00;;;;;;5139200;27;20491;-75
2022/07/31 01:18:50;;;;;;;0.90;0.80;;;21.10;1.00;;;;;;5139126;27;20520;-75
2022/07/31 01:21:23;;;;;;;0.90;0.80;;;21.10;1.00;;;;;;5139409;27;20814;-75
2022/07/31 01:24:07;;;;;;;1.10;0.80;;;21.10;1.00;;;;;;5139038;27;20825;-75
2022/07/31 01:26:46;;;;;;;1.00;0.90;;;21.10;1.00;;;;;;5137991;27;20807;-74
2022/07/31 01:29:22;;;;;;;1.00;0.90;;;21.00;1.00;;;;;;5138009;27;20523;-75
2022/07/31 01:31:56;;;;;;;1.10;1.00;;;21.00;1.00;;;;;;5137978;27;20444;-75
2022/07/31 01:34:30;;;;;;;1.00;0.80;;;20.90;1.00;;;;;;5138238;27;20483;-74
2022/07/31 01:37:02;;;;;;;0.93;0.80;;;20.80;1.00;;;;;;5137822;27;20455;-74
2022/07/31 01:39:33;;;;;;;1.33;0.90;;;20.80;1.00;;;;;;5138216;27;20753;-74
2022/07/31 01:42:03;;;;;;;1.03;0.90;;;20.80;1.00;;;;;;5138772;27;20542;-74
2022/07/31 01:44:36;;;;;;;0.90;0.73;;;20.90;1.00;;;;;;5138833;27;20793;-74
2022/07/31 01:47:04;;;;;;;1.00;0.87;;;21.00;1.00;;;;;;5138761;27;20819;-74
2022/07/31 01:49:32;;;;;;;2.80;0.80;;;20.90;1.00;;;;;;5139254;27;20451;-74
2022/07/31 01:52:00;;;;;;;1.07;0.90;;;20.90;1.00;;;;;;5138751;27;20428;-74
2022/07/31 01:54:28;;;;;;;1.00;0.87;;;20.90;1.00;;;;;;5138626;27;20900;-74
2022/07/31 01:56:58;;;;;;;0.97;0.83;;;20.80;1.00;;;;;;5138499;27;20523;-74
2022/07/31 01:59:27;;;;;;;1.20;0.97;;;20.70;1.00;;;;;;5138575;27;20455;-74
2022/07/31 02:01:56;;;;;;;1.00;0.80;;;20.70;1.00;;;;;;5138845;27;20895;-74
2022/07/31 02:04:25;;;;;;;1.20;1.00;;;20.60;1.00;;;;;;5138247;27;20576;-74
2022/07/31 02:06:53;;;;;;;1.37;0.87;;;20.60;1.00;;;;;;5138125;27;20447;-74
2022/07/31 02:09:23;;;;;;;1.00;0.90;;;20.70;1.00;;;;;;5138177;27;20531;-74
2022/07/31 02:11:51;;;;;;;2.30;0.90;;;20.60;1.00;;;;;;5138337;27;20574;-74
2022/07/31 02:14:19;;;;;;;0.90;0.80;;;20.60;1.00;;;;;;5138394;27;20505;-74
2022/07/31 02:16:48;;;;;;;1.00;0.83;;;20.60;1.00;;;;;;5138374;27;20810;-74
2022/07/31 02:19:18;;;;;;;1.23;0.93;;;20.60;1.00;;;;;;5138339;27;20461;-74
2022/07/31 02:21:45;;;;;;;1.03;0.77;;;20.50;1.00;;;;;;5138274;27;20451;-74
2022/07/31 02:24:12;;;;;;;1.80;1.00;;;20.60;1.00;;;;;;5138004;27;20486;-73
2022/07/31 02:26:40;;;;;;;1.20;0.90;;;20.50;1.00;;;;;;5137205;27;20478;-74
2022/07/31 02:29:08;;;;;;;1.57;0.90;;;20.50;1.00;;;;;;5139004;27;20487;-74
2022/07/31 02:31:36;;;;;;;1.00;0.90;;;20.40;1.00;;;;;;5137142;27;20530;-74
2022/07/31 02:34:03;;;;;;;1.00;0.90;;;20.50;2.80;;;;;;5137252;27;20444;-74
2022/07/31 02:36:34;;;;;;;2.30;1.00;;;20.40;1.00;;;;;;5138127;27;20812;-74
2022/07/31 02:39:03;;;;;;;1.00;0.90;;;20.40;1.00;;;;;;5138114;27;20452;-74
2022/07/31 02:41:30;;;;;;;1.00;0.90;;;20.30;1.00;;;;;;5137892;27;20454;-74
2022/07/31 02:43:58;;;;;;;1.20;0.83;;;20.20;1.00;;;;;;5137272;27;20484;-74
2022/07/31 02:46:26;;;;;;;0.90;0.80;;;20.20;14.40;;;;;;5136836;27;20516;-74
2022/07/31 02:48:54;;;;;;;1.67;0.90;;;20.20;51.40;;;;;;5137765;27;20466;-73
2022/07/31 02:51:22;;;;;;;1.00;0.80;;;20.10;55.70;;;;;;5138312;27;20487;-74
2022/07/31 02:53:51;;;;;;;2.60;0.80;;;20.20;99.90;;;;;;5137267;27;20530;-74
2022/07/31 02:56:18;;;;;;;3.00;0.90;;;20.20;74.80;;;;;;5138378;27;20443;-74
2022/07/31 02:58:46;;;;;;;1.00;0.90;;;20.20;24.70;;;;;;5138189;27;20495;-74
2022/07/31 03:01:13;;;;;;;1.10;0.80;;;20.20;21.60;;;;;;5137717;27;20544;-74
2022/07/31 03:03:41;;;;;;;1.07;0.80;;;20.20;52.20;;;;;;5137551;27;20508;-74
2022/07/31 03:06:07;;;;;;;1.60;0.93;;;20.30;45.50;;;;;;5137631;27;20479;-74
2022/07/31 03:08:35;;;;;;;1.10;0.80;;;20.30;20.10;;;;;;5137572;27;20551;-75
2022/07/31 03:11:03;;;;;;;0.83;0.83;;;20.30;11.20;;;;;;5137378;27;20993;-74
2022/07/31 03:13:33;;;;;;;1.00;0.90;;;20.30;3.50;;;;;;5137467;27;20509;-74
2022/07/31 03:16:02;;;;;;;2.23;1.00;;;20.30;1.00;;;;;;5137400;27;20522;-74
2022/07/31 03:18:31;;;;;;;1.00;0.90;;;20.30;9.30;;;;;;5137293;27;20459;-74
2022/07/31 03:20:58;;;;;;;1.20;0.80;;;20.20;29.40;;;;;;5137244;27;20471;-74
2022/07/31 03:23:34;;;;;;;2.03;0.80;;;20.20;22.70;;;;;;5137259;27;20768;-74
2022/07/31 03:26:03;;;;;;;1.57;0.90;;;20.10;29.60;;;;;;5137489;27;20531;-74
2022/07/31 03:28:31;;;;;;;1.30;1.00;;;20.00;87.30;;;;;;5137345;28;20479;-74
2022/07/31 03:30:58;;;;;;;1.60;0.83;;;20.00;99.90;;;;;;5137489;28;20800;-74
2022/07/31 03:33:25;;;;;;;1.37;0.90;;;20.00;99.90;;;;;;5137193;28;20514;-74
2022/07/31 03:35:53;;;;;;;1.83;0.90;;;20.10;99.90;;;;;;5137191;28;20455;-74
2022/07/31 03:38:20;;;;;;;1.10;0.80;;;20.00;67.80;;;;;;5136220;28;20756;-74
2022/07/31 03:40:47;;;;;;;0.90;0.80;;;20.00;99.90;;;;;;5137294;28;20474;-74
2022/07/31 03:43:17;;;;;;;1.10;0.93;;;20.10;99.90;;;;;;5136849;27;20508;-74
2022/07/31 03:45:45;;;;;;;1.10;1.00;;;20.10;93.40;;;;;;5139584;27;20793;-73
2022/07/31 03:48:12;;;;;;;1.00;0.80;;;20.10;37.40;;;;;;5141564;27;20759;-74
2022/07/31 03:50:41;;;;;;;1.00;0.90;;;20.00;21.90;;;;;;5140323;27;20475;-73
2022/07/31 03:53:09;;;;;;;1.40;0.80;;;20.00;38.70;;;;;;5140445;27;20459;-73
2022/07/31 03:55:38;;;;;;;1.03;0.93;;;19.80;74.20;;;;;;5141138;27;20784;-73
2022/07/31 03:58:06;;;;;;;1.80;1.00;;;19.80;99.90;;;;;;5141129;27;20456;-73
2022/07/31 04:00:35;;;;;;;0.90;0.80;;;19.80;99.90;;;;;;5140775;27;20825;-73
2022/07/31 04:03:08;;;;;;;1.20;1.10;;;19.70;99.90;;;;;;5141342;27;20501;-74
2022/07/31 04:05:38;;;;;;;1.20;0.93;;;19.60;99.90;;;;;;5141353;27;20479;-73
2022/07/31 04:08:09;;;;;;;1.00;0.90;;;19.70;99.90;;;;;;5142165;27;20527;-74
2022/07/31 04:13:18;;;;;;;1.20;1.00;;;19.80;99.90;;;;;;5140249;27;20443;-74
2022/07/31 04:15:46;;;;;;;1.20;1.10;;;19.90;99.90;;;;;;5141765;27;20458;-74
2022/07/31 04:18:13;;;;;;;2.30;1.07;;;19.80;99.90;;;;;;5141394;27;20741;-74
2022/07/31 04:20:40;;;;;;;2.23;0.97;;;19.80;99.90;;;;;;5140496;27;20483;-74
2022/07/31 04:23:07;;;;;;;1.07;0.97;;;19.80;99.90;;;;;;5139787;27;20802;-75
2022/07/31 04:25:34;;;;;;;1.00;0.90;;;19.80;99.90;;;;;;5138909;27;20486;-75
2022/07/31 04:28:02;;;;;;;1.20;0.90;;;19.70;99.90;;;;;;5137121;27;20762;-72
2022/07/31 04:30:29;;;;;;;1.00;0.90;;;19.80;99.90;;;;;;5139050;27;20435;-73
2022/07/31 04:32:59;;;;;;;1.10;0.90;;;19.90;99.90;;;;;;5139618;27;20530;-73
2022/07/31 04:35:26;;;;;;;0.80;0.80;;;19.90;90.70;;;;;;5140339;27;20451;-73
2022/07/31 04:37:53;;;;;;;0.93;0.83;;;19.90;84.30;;;;;;5140297;27;20452;-73
2022/07/31 04:40:20;;;;;;;1.77;1.00;;;19.80;95.60;;;;;;5140417;27;20443;-73
2022/07/31 04:42:47;;;;;;;1.00;0.90;;;19.90;99.90;;;;;;5140465;27;20505;-75
2022/07/31 04:45:14;;;;;;;1.03;0.83;;;19.90;81.60;;;;;;5140508;27;20744;-73
2022/07/31 04:47:41;;;;;;;1.47;0.83;;;20.00;76.30;;;;;;5140197;27;20505;-73
2022/07/31 04:50:10;;;;;;;1.00;0.80;;;20.10;26.70;;;;;;5140280;27;20444;-73
2022/07/31 04:52:37;;;;;;;1.23;0.90;;;20.10;28.00;;;;;;5139906;27;20483;-73
2022/07/31 04:55:06;;;;;;;1.10;0.90;;;20.20;17.30;;;;;;5139589;27;20801;-74
2022/07/31 04:57:33;;;;;;;1.10;0.90;;;20.20;14.00;;;;;;5138658;27;20536;-74
2022/07/31 05:00:00;;;;;;;1.00;0.90;;;20.30;16.50;;;;;;5139479;27;20528;-74
2022/07/31 05:02:27;;;;;;;4.80;0.90;;;20.30;9.40;;;;;;5139262;27;20497;-74
2022/07/31 05:04:53;;;;;;;0.80;0.80;;;20.30;1.00;;;;;;5137704;27;20583;-74
2022/07/31 05:07:22;;;;;;;2.93;0.97;;;20.30;1.00;;;;;;5139292;27;20487;-74
2022/07/31 05:09:49;;;;;;;1.80;0.93;;;20.40;1.00;;;;;;5138190;27;20450;-74
2022/07/31 05:12:16;;;;;;;1.10;0.90;;;20.50;1.00;;;;;;5138262;27;20949;-73
2022/07/31 05:14:42;;;;;;;1.10;1.00;;;20.80;1.00;;;;;;5137516;27;21103;-73
2022/07/31 05:17:09;;;;;;;1.30;0.90;;;20.90;1.00;;;;;;5137548;27;20559;-73
2022/07/31 05:19:37;;;;;;;1.30;1.13;;;21.10;1.00;;;;;;5137988;27;20498;-73
2022/07/31 05:22:03;;;;;;;1.20;0.97;;;21.10;1.00;;;;;;5137693;27;20444;-73
2022/07/31 05:24:32;;;;;;;1.23;1.10;;;21.00;1.00;;;;;;5136850;27;20514;-73
2022/07/31 05:26:59;;;;;;;1.40;1.00;;;21.00;1.00;;;;;;5137618;27;20444;-73
2022/07/31 05:29:26;;;;;;;1.10;0.90;;;21.00;1.00;;;;;;5137641;27;20451;-75
2022/07/31 05:31:52;;;;;;;1.20;0.97;;;20.80;1.00;;;;;;5137588;27;20478;-74
2022/07/31 05:34:19;;;;;;;1.20;1.00;;;20.60;1.00;;;;;;5137885;27;20448;-74
2022/07/31 05:36:46;;;;;;;2.30;0.97;;;20.40;1.00;;;;;;5137764;27;20963;-74
2022/07/31 05:39:13;;;;;;;1.00;0.80;;;20.60;1.00;;;;;;5137660;27;20549;-74
2022/07/31 05:41:41;;;;;;;1.07;0.90;;;20.80;1.00;;;;;;5138330;27;20500;-74
2022/07/31 05:44:08;;;;;;;1.23;0.90;;;20.90;1.00;;;;;;5138335;27;20543;-74
2022/07/31 05:46:35;;;;;;;1.20;1.10;;;21.10;1.00;;;;;;5138506;27;20471;-74
2022/07/31 05:49:02;;;;;;;1.20;1.00;;;21.20;1.00;;;;;;5138732;27;20501;-74
2022/07/31 05:51:30;;;;;;;1.30;1.00;;;21.20;1.00;;;;;;5138685;27;20483;-74
2022/07/31 05:53:57;;;;;;;1.13;1.00;;;21.10;1.00;;;;;;5138676;27;20460;-74
2022/07/31 05:56:24;;;;;;;1.13;0.90;;;21.30;1.00;;;;;;5138891;27;20547;-74
2022/07/31 05:58:53;;;;;;;1.00;0.80;;;21.50;1.00;;;;;;5138940;27;20475;-74
2022/07/31 06:01:20;;;;;;;1.03;0.90;;;21.60;1.00;;;;;;5138499;27;20490;-74
2022/07/31 06:03:47;;;;;;;1.20;0.80;;;21.70;1.00;;;;;;5138732;27;20782;-74
2022/07/31 06:06:13;;;;;;;0.93;0.80;;;21.60;1.00;;;;;;5138613;27;20511;-74
2022/07/31 06:08:40;;;;;;;1.60;0.80;;;21.50;1.00;;;;;;5138568;27;20933;-74
2022/07/31 06:11:07;;;;;;;1.10;0.73;;;21.40;1.00;;;;;;5138133;27;20548;-74
2022/07/31 06:13:34;;;;;;;1.30;0.90;;;21.40;1.00;;;;;;5138090;27;20933;-74
2022/07/31 06:16:04;;;;;;;1.00;0.90;;;21.50;1.00;;;;;;5138365;27;20528;-74
2022/07/31 06:18:31;;;;;;;0.90;0.80;;;21.70;1.00;;;;;;5138362;27;20879;-74
2022/07/31 06:20:58;;;;;;;1.00;0.80;;;21.70;1.00;;;;;;5138810;27;20475;-74
2022/07/31 06:23:25;;;;;;;1.40;0.80;;;21.80;1.00;;;;;;5138385;27;20842;-74
2022/07/31 06:25:52;;;;;;;1.93;0.90;;;22.00;1.00;;;;;;5138110;27;20540;-73
2022/07/31 06:28:19;;;;;;;1.30;1.00;;;22.20;1.00;;;;;;5138063;27;20509;-73
2022/07/31 06:30:46;;;;;;;1.20;1.00;;;22.30;1.00;;;;;;5137763;27;20509;-73
2022/07/31 06:33:14;;;;;;;1.00;0.90;;;22.30;1.00;;;;;;5137405;27;20459;-74
2022/07/31 06:35:41;;;;;;;0.90;0.73;;;22.10;1.00;;;;;;5137578;27;20482;-73
2022/07/31 06:38:08;;;;;;;1.10;0.90;;;22.00;1.00;;;;;;5137256;27;20490;-73
2022/07/31 06:40:37;;;;;;;1.07;0.80;;;21.90;1.00;;;;;;5137618;27;20447;-73
2022/07/31 06:43:04;;;;;;;3.73;0.80;;;22.00;1.00;;;;;;5137055;27;20459;-73
2022/07/31 06:45:31;;;;;;;1.00;0.90;;;22.10;1.00;;;;;;5136194;27;20475;-73
2022/07/31 06:48:01;;;;;;;2.57;0.80;;;22.10;1.00;;;;;;5136633;27;20475;-74
2022/07/31 06:50:29;;;;;;;0.90;0.70;;;22.00;1.00;;;;;;5137097;27;20440;-73
2022/07/31 06:52:56;;;;;;;1.10;0.83;;;22.10;1.00;;;;;;5135832;27;20487;-73
2022/07/31 06:55:23;;;;;;;0.80;0.80;;;22.30;1.00;;;;;;5136351;27;20485;-73
2022/07/31 06:57:50;;;;;;;1.10;0.90;;;22.40;1.00;;;;;;5136703;27;20479;-73
2022/07/31 07:00:17;;;;;;;2.00;0.80;;;22.40;1.00;;;;;;5137341;27;20815;-73
2022/07/31 07:02:44;;;;;;;1.97;1.87;;;22.40;1.00;;;;;;5136739;27;20502;-73
2022/07/31 07:05:11;;;;;;;1.00;0.90;;;22.40;1.00;;;;;;5136598;27;21021;-73
2022/07/31 07:07:39;;;;;;;0.90;0.70;;;22.40;1.00;;;;;;5136432;27;20484;-72
2022/07/31 07:10:08;;;;;;;1.00;0.90;;;22.50;1.00;;;;;;5136554;27;20446;-74
2022/07/31 07:12:35;;;;;;;1.10;0.80;;;22.70;1.00;;;;;;5136448;27;20499;-73
2022/07/31 07:15:02;;;;;;;0.80;0.80;;;22.70;1.00;;;;;;5136128;27;20539;-73
2022/07/31 07:17:29;;;;;;;0.90;0.70;;;22.70;1.00;;;;;;5137054;27;20483;-73
2022/07/31 07:19:56;;;;;;;1.50;0.70;;;22.70;1.00;;;;;;5136772;27;20473;-73
2022/07/31 07:22:23;;;;;;;1.57;0.90;;;22.70;1.00;;;;;;5136465;27;20823;-73
2022/07/31 07:24:51;;;;;;;1.03;0.80;;;22.70;1.00;;;;;;5136478;27;20571;-73
2022/07/31 07:27:18;;;;;;;1.03;0.73;;;22.80;1.00;;;;;;5136472;28;20444;-73
2022/07/31 07:29:45;;;;;;;0.90;0.80;;;23.00;1.00;;;;;;5136158;28;20798;-73
2022/07/31 07:32:13;;;;;;;1.00;0.80;;;23.30;1.00;;;;;;5136886;28;20447;-72
2022/07/31 07:34:40;;;;;;;2.57;0.90;;;23.40;1.00;;;;;;5136617;28;20492;-73
2022/07/31 07:37:07;;;;;;;0.70;0.60;;;23.50;1.00;;;;;;5137225;28;20444;-74
2022/07/31 07:39:34;;;;;;;0.70;0.70;;;23.60;1.00;;;;;;5136676;28;20912;-74
2022/07/31 07:42:02;;;;;;;0.90;0.80;;;23.80;1.00;;;;;;5136084;28;20503;-74
2022/07/31 07:44:29;;;;;;;1.30;0.80;;;24.00;1.00;;;;;;5136708;28;20504;-74
2022/07/31 07:46:56;;;;;;;1.53;0.97;;;24.00;1.00;;;;;;5129928;28;20457;-74
2022/07/31 07:49:23;;;;;;;1.30;1.00;;;24.00;1.00;;;;;;5116029;28;20499;-74
2022/07/31 07:51:50;;;;;;;4.73;1.10;;;24.00;1.00;;;;;;5116082;28;20464;-74
2022/07/31 07:54:17;;;;;;;1.60;1.10;;;24.10;1.00;;;;;;5116394;28;20888;-74
2022/07/31 07:56:44;;;;;;;1.37;0.93;;;24.00;1.00;;;;;;5116594;28;20473;-74
2022/07/31 07:59:12;;;;;;;1.23;1.03;;;24.10;1.00;;;;;;5115584;28;20454;-75
2022/07/31 08:01:39;;;;;;;1.37;0.90;;;24.20;1.00;;;;;;5115961;28;20441;-74
2022/07/31 08:04:06;;;;;;;1.67;1.00;;;24.20;1.00;;;;;;5115162;28;20454;-74
2022/07/31 08:06:33;;;;;;;2.97;1.03;;;24.20;1.00;;;;;;5114577;28;20483;-73
2022/07/31 08:09:00;;;;;;;1.10;0.90;;;24.30;1.00;;;;;;5115708;28;20456;-73
2022/07/31 08:11:28;;;;;;;1.00;0.90;;;24.30;1.00;;;;;;5115726;28;20571;-74
2022/07/31 08:13:55;;;;;;;1.53;1.00;;;24.20;1.00;;;;;;5115462;28;20457;-75
2022/07/31 08:16:24;;;;;;;1.50;0.93;;;24.10;1.00;;;;;;5114860;28;20729;-75
2022/07/31 08:18:51;;;;;;;1.10;1.00;;;24.10;1.00;;;;;;5114306;28;20941;-75
2022/07/31 08:21:19;;;;;;;0.93;0.80;;;24.20;1.00;;;;;;5113712;28;20756;-75
2022/07/31 08:23:46;;;;;;;1.13;0.80;;;24.40;1.00;;;;;;5114887;28;20476;-74
2022/07/31 08:26:13;;;;;;;1.20;0.90;;;24.50;1.00;;;;;;5115084;28;21117;-75
2022/07/31 08:28:40;;;;;;;1.00;0.90;;;24.40;1.00;;;;;;5113060;28;20854;-75
2022/07/31 08:31:07;;;;;;;1.37;1.10;;;24.30;1.00;;;;;;5113896;28;20480;-75
2022/07/31 08:33:35;;;;;;;1.10;1.00;;;24.30;1.00;;;;;;5117095;28;20505;-74
2022/07/31 08:36:03;;;;;;;2.07;1.10;;;24.20;1.00;;;;;;5116486;28;20445;-74
2022/07/31 08:38:30;;;;;;;1.00;0.90;;;24.20;1.00;;;;;;5116468;28;20458;-74
2022/07/31 08:40:57;;;;;;;1.20;1.00;;;24.20;1.00;;;;;;5117043;28;20506;-74
2022/07/31 08:43:24;;;;;;;1.70;1.10;;;24.20;1.00;;;;;;5118129;28;20488;-75
2022/07/31 08:45:52;;;;;;;1.10;1.00;;;24.30;1.00;;;;;;5117740;28;20480;-75
2022/07/31 08:48:23;;;;;;;1.20;0.90;;;24.50;1.00;;;;;;5118533;28;20539;-74
2022/07/31 08:50:53;;;;;;;1.00;0.90;;;24.50;1.00;;;;;;5118117;28;20468;-73
2022/07/31 08:53:22;;;;;;;2.00;0.90;;;24.50;1.00;;;;;;5118790;28;20543;-74
2022/07/31 08:55:49;;;;;;;1.40;1.00;;;24.60;1.00;;;;;;5118920;28;20467;-74
2022/07/31 08:58:19;;;;;;;1.27;0.87;;;24.50;1.00;;;;;;5119368;28;20488;-75
2022/07/31 09:00:49;;;;;;;1.20;1.00;;;24.50;1.00;;;;;;5119598;28;20445;-74
2022/07/31 09:03:17;;;;;;;1.10;1.00;;;24.60;1.00;;;;;;5118212;28;20466;-73
2022/07/31 09:05:43;;;;;;;1.10;1.00;;;24.90;1.00;;;;;;5118278;27;20575;-75
2022/07/31 09:08:12;;;;;;;1.20;0.90;;;25.30;1.00;;;;;;5118587;28;20809;-74
2022/07/31 09:10:39;;;;;;;1.00;0.90;;;25.60;1.00;;;;;;5117419;28;20480;-75
2022/07/31 09:13:14;;;;;;;1.13;1.00;;;25.90;1.00;;;;;;5097063;28;20965;-75
2022/07/31 09:15:41;;;;;;;1.07;0.83;;;26.10;1.00;;;;;;5096628;28;20560;-74
2022/07/31 09:18:17;;;;;;;1.13;1.03;;;25.90;1.00;;;;;;5097588;28;20465;-74
2022/07/31 09:20:54;;;;;;;1.23;0.90;;;25.60;1.00;;;;;;5097406;28;20441;-75
2022/07/31 09:23:23;;;;;;;1.07;0.90;;;25.80;1.00;;;;;;5098683;28;20720;-74
2022/07/31 09:25:55;;;;;;;1.00;0.90;;;25.90;1.00;;;;;;5098282;28;20481;-74
2022/07/31 09:28:35;;;;;;;1.23;0.70;;;25.80;1.00;;;;;;5097724;28;20485;-75
2022/07/31 09:31:03;;;;;;;1.50;1.00;;;25.90;1.00;;;;;;5097267;28;20489;-75
2022/07/31 09:33:31;;;;;;;0.90;0.80;;;25.90;1.00;;;;;;5096233;28;20454;-75
2022/07/31 09:35:59;;;;;;;1.00;0.90;;;26.20;1.00;;;;;;5096873;28;20448;-75
2022/07/31 09:38:33;;;;;;;0.90;0.70;;;26.50;1.00;;;;;;5096420;28;20789;-75
2022/07/31 09:41:13;;;;;;;1.00;0.87;;;26.70;1.00;;;;;;5112442;28;20456;-74
2022/07/31 09:43:41;;;;;;;0.80;0.70;;;27.00;1.00;;;;;;5102998;28;20464;-74
2022/07/31 09:46:09;;;;;;;1.67;0.70;;;27.40;1.00;;;;;;5105864;28;20574;-73
2022/07/31 09:48:49;;;;;;;0.80;0.80;;;27.70;1.00;;;;;;5114106;27;20899;-74
2022/07/31 09:51:16;;;;;;;0.70;0.70;;;27.70;1.00;;;;;;5109520;28;20572;-73
2022/07/31 09:53:46;;;;;;;1.00;0.80;;;27.90;1.00;;;;;;5109562;28;20468;-73
2022/07/31 09:56:14;;;;;;;0.90;0.70;;;28.00;1.00;;;;;;5113547;27;20907;-74
2022/07/31 09:58:42;;;;;;;0.87;0.73;;;28.10;1.00;;;;;;5105015;27;20453;-74
2022/07/31 10:01:11;;;;;;;0.90;0.73;;;27.90;1.00;;;;;;5116869;28;20559;-73
2022/07/31 10:03:39;;;;;;;0.90;0.70;;;27.60;1.00;;;;;;5114998;28;20514;-73
2022/07/31 10:06:12;;;;;;;0.80;0.70;;;27.60;1.00;;;;;;5114848;28;20487;-73
2022/07/31 10:08:41;;;;;;;1.60;0.80;;;27.50;1.00;;;;;;5115571;28;20471;-73
2022/07/31 10:11:10;;;;;;;2.20;0.80;;;27.60;1.00;;;;;;5119835;27;20515;-73
2022/07/31 10:13:40;;;;;;;0.70;0.60;;;27.90;1.00;;;;;;5134422;27;20463;-73
2022/07/31 10:16:09;;;;;;;0.70;0.60;;;28.00;1.00;;;;;;5136904;27;20497;-73
2022/07/31 10:18:39;;;;;;;1.07;0.80;;;28.20;1.00;;;;;;5131283;27;20465;-74
2022/07/31 10:21:07;;;;;;;0.77;0.70;;;28.40;1.00;;;;;;5129151;27;20498;-74
2022/07/31 10:23:36;;;;;;;2.50;0.80;;;28.50;1.00;;;;;;5137115;27;20498;-74
2022/07/31 10:26:03;;;;;;;1.00;0.80;;;28.40;1.00;;;;;;5153344;27;20510;-74
2022/07/31 10:28:35;;;;;;;0.67;0.60;;;28.40;1.00;;;;;;5146059;27;20518;-74
2022/07/31 10:31:02;;;;;;;1.63;0.50;;;28.40;1.00;;;;;;5125267;27;20503;-74
2022/07/31 10:33:30;;;;;;;0.60;0.50;;;28.20;1.00;;;;;;5151710;27;20503;-74
2022/07/31 10:36:03;;;;;;;1.83;0.60;;;28.00;1.00;;;;;;5131292;27;20745;-74
2022/07/31 10:38:35;;;;;;;0.90;0.80;;;27.70;1.00;;;;;;5138388;27;20493;-74
2022/07/31 10:41:07;;;;;;;0.60;0.50;;;27.60;1.00;;;;;;5141335;27;20874;-74
2022/07/31 10:43:45;;;;;;;0.70;0.60;;;28.00;1.00;;;;;;5137149;27;20459;-74
2022/07/31 10:46:12;;;;;;;0.70;0.60;;;28.40;1.00;;;;;;5156156;27;20569;-74
2022/07/31 10:48:51;;;;;;;0.90;0.63;;;28.60;1.00;;;;;;5149230;27;20459;-74
2022/07/31 10:51:18;;;;;;;0.87;0.63;;;28.50;1.00;;;;;;5136350;27;20455;-74
2022/07/31 10:53:54;;;;;;;0.90;0.70;;;28.60;1.00;;;;;;5132129;27;20522;-74
2022/07/31 10:56:21;;;;;;;1.17;0.63;;;28.50;1.00;;;;;;5157011;27;20451;-74
2022/07/31 10:58:51;;;;;;;0.90;0.60;;;28.40;1.00;;;;;;5139419;27;20447;-75
2022/07/31 11:01:18;;;;;;;0.70;0.67;;;28.40;1.00;;;;;;5142326;27;20554;-74
2022/07/31 11:03:47;;;;;;;1.00;0.87;;;28.30;1.00;;;;;;5152206;27;20550;-74
2022/07/31 11:06:15;;;;;;;0.67;0.50;;;28.10;1.00;;;;;;5147724;27;20482;-74
2022/07/31 11:08:44;;;;;;;1.53;0.70;;;28.10;1.00;;;;;;5144890;27;20470;-74
2022/07/31 11:11:12;;;;;;;2.27;0.80;;;28.20;1.00;;;;;;5119084;27;20508;-74
2022/07/31 11:13:50;;;;;;;0.97;0.87;;;28.10;1.00;;;;;;5115920;28;20457;-74
2022/07/31 11:16:17;;;;;;;1.00;0.70;;;28.10;1.00;;;;;;5135094;27;20486;-74
2022/07/31 11:18:46;;;;;;;1.77;0.77;;;28.20;1.00;;;;;;5133755;27;20559;-72
2022/07/31 11:21:13;;;;;;;0.87;0.87;;;28.30;1.00;;;;;;5131177;27;20460;-75
2022/07/31 11:23:40;;;;;;;0.90;0.70;;;28.30;1.00;;;;;;5130235;27;20494;-73
2022/07/31 11:26:08;;;;;;;0.73;0.70;;;28.90;1.00;;;;;;5118409;27;20576;-73
2022/07/31 11:28:36;;;;;;;0.70;0.60;;;29.50;1.00;;;;;;5134364;28;20480;-73
2022/07/31 11:31:08;;;;;;;1.00;0.60;;;30.20;1.00;;;;;;5130843;28;20550;-72
2022/07/31 11:33:37;;;;;;;1.40;0.60;;;30.50;1.00;;;;;;5133899;27;20467;-73
2022/07/31 11:36:12;;;;;;;0.80;0.60;;;30.20;1.00;;;;;;5115274;28;20546;-73
2022/07/31 11:38:41;;;;;;;0.70;0.50;;;29.50;1.00;;;;;;5124620;27;20458;-72
2022/07/31 11:41:09;;;;;;;0.70;0.67;;;29.40;1.00;;;;;;5132043;27;20454;-73
2022/07/31 11:43:38;;;;;;;0.80;0.60;;;29.10;1.00;;;;;;5126638;27;20460;-73
2022/07/31 11:46:06;;;;;;;0.63;0.60;;;28.60;1.00;;;;;;5129023;27;20478;-72
2022/07/31 11:48:33;;;;;;;1.00;0.80;;;28.50;1.00;;;;;;5127987;27;20782;-72
2022/07/31 11:51:00;;;;;;;1.07;0.97;;;28.60;1.00;;;;;;5129375;28;20953;-74
2022/07/31 11:53:28;;;;;;;0.70;0.70;;;28.60;1.00;;;;;;5125299;27;20463;-74
2022/07/31 11:55:57;;;;;;;0.90;0.80;;;28.90;1.00;;;;;;5125276;27;20481;-74
2022/07/31 11:58:25;;;;;;;0.90;0.60;;;29.20;1.00;;;;;;5126299;27;20478;-73
2022/07/31 12:00:54;;;;;;;0.80;0.70;;;29.50;1.00;;;;;;5135063;27;21069;-74
2022/07/31 12:03:25;;;;;;;0.60;0.57;;;29.70;1.00;;;;;;5121111;27;20500;-74
2022/07/31 12:05:53;;;;;;;0.93;0.70;;;30.20;1.00;;;;;;5113306;27;20543;-73
2022/07/31 12:08:21;;;;;;;0.70;0.60;;;30.40;1.00;;;;;;5129033;27;20550;-74
2022/07/31 12:10:48;;;;;;;0.80;0.80;;;30.30;1.00;;;;;;5135340;27;20483;-73
2022/07/31 12:13:19;;;;;;;0.70;0.60;;;30.10;1.00;;;;;;5151257;27;20550;-73
2022/07/31 12:16:01;;;;;;;0.97;0.60;;;29.60;1.00;;;;;;5136197;27;20784;-73
2022/07/31 12:18:44;;;;;;;0.80;0.70;;;29.60;1.00;;;;;;5116491;28;20448;-73
2022/07/31 12:21:11;;;;;;;4.57;0.90;;;29.50;1.00;;;;;;5116939;28;20531;-73
2022/07/31 12:23:42;;;;;;;0.70;0.50;;;29.40;1.00;;;;;;5117928;28;20521;-72
2022/07/31 12:26:12;;;;;;;0.90;0.60;;;29.40;1.00;;;;;;5118244;28;20468;-73
2022/07/31 12:28:40;;;;;;;0.70;0.60;;;29.60;1.00;;;;;;5120009;28;20538;-72
2022/07/31 12:31:08;;;;;;;0.87;0.80;;;29.80;1.00;;;;;;5119057;28;20448;-74
2022/07/31 12:33:44;;;;;;;1.10;0.80;;;30.00;1.00;;;;;;5118232;28;20547;-74
2022/07/31 12:36:15;;;;;;;0.90;0.60;;;30.10;1.00;;;;;;5119306;28;20974;-74
2022/07/31 12:38:42;;;;;;;0.67;0.60;;;30.10;1.00;;;;;;5118164;28;20774;-74
2022/07/31 12:41:09;;;;;;;0.60;0.47;;;30.10;1.00;;;;;;5117369;28;20441;-73
2022/07/31 12:43:36;;;;;;;0.80;0.80;;;30.20;1.00;;;;;;5117119;28;20491;-72
2022/07/31 12:46:04;;;;;;;0.80;0.60;;;29.90;1.00;;;;;;5118148;28;20903;-73
2022/07/31 12:48:32;;;;;;;0.70;0.60;;;29.60;1.00;;;;;;5118888;28;20748;-73
2022/07/31 12:51:01;;;;;;;1.17;0.63;;;29.40;1.00;;;;;;5120236;28;20449;-73
2022/07/31 12:53:29;;;;;;;0.70;0.70;;;29.50;1.00;;;;;;5119069;28;20572;-73
2022/07/31 12:55:56;;;;;;;0.77;0.53;;;30.50;1.00;;;;;;5118843;28;20449;-73
2022/07/31 12:58:24;;;;;;;0.67;0.53;;;31.20;1.00;;;;;;5119432;28;20484;-73
2022/07/31 13:00:51;;;;;;;0.90;0.70;;;31.60;1.00;;;;;;5118633;28;20491;-73
2022/07/31 13:03:18;;;;;;;0.70;0.50;;;31.60;1.00;;;;;;5118414;28;20911;-73
2022/07/31 13:05:45;;;;;;;0.80;0.70;;;31.90;1.00;;;;;;5117316;28;20473;-73